LDM weather

Mason County Airport
Ludington, Michigan, United States

Public forecast

Using degrees Fahrenheit for public forecast. Weather courtesy of forecast.io.

Current aviation weather report (METAR) for Mason County Airport

Retrieved 2019/11/20 08:35 UTC (0 seconds ago):

KLDM 200835Z AUTO 00000KT 5SM BR OVC013 02/00 A3005 RMK AO2 T00200000

Closest aviation forecast (TAF) to Mason County Airport

Closest forecast is Manistee Co Blacker Airport, 19.9 nm (36.8 km) NNE. Retrieved 2019/11/20 06:30 UTC (2 hours ago):

TAF KMBL 200527Z 2006/2106 09003KT 6SM BR OVC015 TEMPO 2006/2010 2SM BR SCT002 OVC015 FM201400 VRB04KT P6SM BKN013 FM201800 23005KT P6SM BKN022 FM210100 VRB03KT P6SM BKN030 FM210300 17005KT P6SM OVC045